Etusivu
METAR-TAF:

METAR-TAF

Lentoasemat :

Bryssel, Belgia

Brysselin lentoasema

Leveyspiiri: 50-54N, Pituuspiiri: 004-32E, korkeus merenpinnasta: 55 m

Tämänhetkinen sää

Tämä raportti tehtiin 17 minuuttia sitten, kello 17.20 UTC
Tuuli 2 kn lännestä
Lämpötila 7°C
Kosteus 66%
Ilmanpaine 1027 hPa
Näkyvyys 10 km tai enemmän
Hajonneita pilviä 4400 ft:n korkeudessa

METAR: EBBR 171720Z 27002KT 9999 BKN044 07/01 Q1027 NOSIG

Aika: 18:37 (17:37 UTC)

Sääennuste

Tämä raportti tehtiin 28 minuuttia sitten, kello 17.09 UTC
Ennuste voimassa 17. päivästä klo 18 UTC - 18. päivään klo 24 UTC
Tuuli 4 kn lännestä
Näkyvyys 10 km tai enemmän
Hajanaisia pilviä 4500 ft:n korkeudessa
Todennäköisyys 30% :
Ajoittain
18. päivästä klo 17 UTC - 18. päivään klo 20 UTC
Hajonneita pilviä 1300 ft:n korkeudessa

TAF: EBBR 171709Z 1718/1824 27004KT 9999 SCT045 PROB30 TEMPO 1817/1820 BKN013

Säähavainnot ja -ennusteet yli 4000 lentoasemalta (METAR- ja TAF-raportit).

Käytössä olevat sääasemat on merkitty karttaan keltaisilla ja punaisilla pisteillä.

Aseta hiiri pisteen päälle nähdäksesi sääaseman nimen.

Klikkaa sitten nähdäksesi säähavainnot ja -ennusteet.

Kartan vaihtaminen: klikkaa mustalla rastilla varustettuja vihreitä pisteitä, niin voit zoomata sisään; viivalla varustettua vihreää pistettä, niin voit zoomata ulos tai vihreitä nuolia, niin pääset viereisille kartoille.


METAR-TAF: